createdAt,value
2023-03-17T00:02:24.919Z,64.81
2023-03-17T00:05:31.555Z,64.77
2023-03-17T00:08:35.712Z,64.59
2023-03-17T00:11:37.487Z,65.84
2023-03-17T00:14:38.877Z,65.27
2023-03-17T00:17:42.227Z,64.61
2023-03-17T00:20:44.778Z,64.47
2023-03-17T00:23:50.584Z,65.55
2023-03-17T00:26:51.976Z,64.39
2023-03-17T00:29:53.424Z,64.97
2023-03-17T00:32:58.010Z,65.44
2023-03-17T00:35:59.556Z,65.01
2023-03-17T00:39:01.389Z,64.87
2023-03-17T00:42:02.887Z,64.83
2023-03-17T00:45:06.365Z,65.04
2023-03-17T00:48:17.351Z,64.56
2023-03-17T00:51:18.741Z,65.11
2023-03-17T00:54:20.669Z,64.73
2023-03-17T00:57:22.639Z,64.53
2023-03-17T01:00:27.633Z,64.99
2023-03-17T01:03:29.371Z,64.36
2023-03-17T01:06:30.820Z,64.08
2023-03-17T01:09:33.774Z,64.44
2023-03-17T01:12:35.179Z,64.38
2023-03-17T01:15:37.281Z,64.81
2023-03-17T01:18:39.630Z,64.59
2023-03-17T01:21:41.555Z,63.94
2023-03-17T01:24:43.157Z,64.56
2023-03-17T01:27:46.396Z,64.35
2023-03-17T01:30:47.934Z,64.80
2023-03-17T01:33:49.321Z,64.05
2023-03-17T01:36:50.872Z,64.21
2023-03-17T01:39:52.582Z,64.61
2023-03-17T01:43:02.152Z,64.91
2023-03-17T01:46:14.701Z,64.63
2023-03-17T01:49:19.303Z,64.28
2023-03-17T01:52:22.835Z,64.31
2023-03-17T01:55:24.737Z,64.16
2023-03-17T01:58:26.570Z,64.04
2023-03-17T02:01:33.565Z,64.48
2023-03-17T02:04:35.333Z,64.63
2023-03-17T02:07:37.562Z,64.66
2023-03-17T02:10:40.933Z,64.53
2023-03-17T02:13:44.558Z,64.34
2023-03-17T02:16:48.532Z,64.23
2023-03-17T02:19:51.753Z,64.26
2023-03-17T02:22:54.826Z,64.77
2023-03-17T02:25:56.272Z,64.66
2023-03-17T02:28:58.016Z,65.27
2023-03-17T02:32:00.399Z,65.18
2023-03-17T02:35:02.414Z,65.30
2023-03-17T02:38:04.352Z,64.62
2023-03-17T02:41:07.140Z,64.99
2023-03-17T02:44:09.695Z,65.37
2023-03-17T02:47:12.305Z,65.17
2023-03-17T02:50:22.087Z,65.59
2023-03-17T02:53:23.483Z,65.54
2023-03-17T02:56:25.204Z,66.06
2023-03-17T02:59:27.583Z,66.36
2023-03-17T03:02:29.023Z,66.13
2023-03-17T03:05:30.469Z,66.19
2023-03-17T03:08:32.024Z,66.55
2023-03-17T03:11:33.423Z,66.63
2023-03-17T03:14:34.822Z,66.70
2023-03-17T03:17:36.292Z,66.46
2023-03-17T03:20:38.245Z,66.43
2023-03-17T03:23:39.702Z,66.53
2023-03-17T03:26:41.316Z,66.33
2023-03-17T03:29:42.781Z,66.04
2023-03-17T03:32:44.200Z,66.56
2023-03-17T03:35:45.830Z,67.04
2023-03-17T03:38:47.245Z,66.82
2023-03-17T03:41:48.696Z,66.86
2023-03-17T03:44:50.075Z,66.76
2023-03-17T03:47:51.585Z,67.25
2023-03-17T03:51:01.352Z,67.25
2023-03-17T03:54:02.832Z,67.47
2023-03-17T03:57:04.624Z,67.78
2023-03-17T04:00:07.426Z,67.75
2023-03-17T04:03:14.135Z,68.36
2023-03-17T04:06:16.233Z,68.53
2023-03-17T04:09:17.655Z,68.09
2023-03-17T04:12:19.144Z,68.25
2023-03-17T04:15:21.052Z,68.30
2023-03-17T04:18:22.543Z,68.44
2023-03-17T04:21:23.943Z,68.75
2023-03-17T04:24:25.594Z,68.72
2023-03-17T04:27:27.029Z,68.84
2023-03-17T04:30:29.015Z,68.71
2023-03-17T04:33:30.580Z,69.00
2023-03-17T04:36:32.706Z,68.93
2023-03-17T04:39:34.129Z,68.17
2023-03-17T04:42:36.669Z,68.10
2023-03-17T04:45:38.670Z,67.79
2023-03-17T04:48:40.271Z,68.41
2023-03-17T04:51:41.955Z,68.66
2023-03-17T04:54:43.564Z,67.44
2023-03-17T04:57:44.975Z,67.32
2023-03-17T05:00:46.799Z,68.35
2023-03-17T05:03:48.981Z,67.50
2023-03-17T05:06:51.780Z,68.47
2023-03-17T05:09:53.250Z,68.22
2023-03-17T05:12:54.646Z,68.24
2023-03-17T05:15:56.898Z,68.64
2023-03-17T05:18:58.467Z,68.74
2023-03-17T05:21:59.892Z,68.20
2023-03-17T05:25:01.322Z,68.76
2023-03-17T05:28:03.151Z,68.22
2023-03-17T05:31:05.296Z,68.60
2023-03-17T05:34:06.778Z,68.29
2023-03-17T05:37:08.607Z,68.31
2023-03-17T05:40:12.291Z,68.37
2023-03-17T05:43:13.942Z,69.09
2023-03-17T05:46:15.470Z,68.58
2023-03-17T05:49:16.933Z,68.73
2023-03-17T05:52:18.394Z,68.68
2023-03-17T05:55:20.481Z,69.60
2023-03-17T05:58:22.024Z,68.86
2023-03-17T06:01:23.732Z,68.03
2023-03-17T06:04:26.289Z,68.53
2023-03-17T06:07:33.093Z,67.96
2023-03-17T06:10:39.691Z,68.04
2023-03-17T06:13:41.479Z,68.38
2023-03-17T06:16:43.088Z,68.00
2023-03-17T06:19:44.482Z,67.92
2023-03-17T06:23:02.365Z,67.71
2023-03-17T06:26:05.725Z,67.51
2023-03-17T06:29:11.618Z,67.32
2023-03-17T06:32:20.366Z,67.34
2023-03-17T06:35:23.248Z,67.56
2023-03-17T06:38:24.692Z,67.55
2023-03-17T06:41:26.490Z,67.97
2023-03-17T06:44:27.885Z,66.57
2023-03-17T06:47:29.473Z,66.33
2023-03-17T06:50:30.933Z,66.32
2023-03-17T06:53:32.390Z,65.90
2023-03-17T06:56:33.867Z,65.69
2023-03-17T06:59:35.718Z,65.69
2023-03-17T07:02:37.141Z,65.43
2023-03-17T07:05:39.323Z,65.24
2023-03-17T07:08:41.447Z,64.69
2023-03-17T07:11:42.876Z,64.17
2023-03-17T07:14:44.320Z,63.76
2023-03-17T07:17:46.899Z,63.15
2023-03-17T07:20:48.320Z,63.27
2023-03-17T07:23:49.711Z,62.44
2023-03-17T07:26:51.392Z,61.83
2023-03-17T07:29:53.333Z,61.50
2023-03-17T07:32:55.236Z,62.25
2023-03-17T07:35:56.823Z,62.32
2023-03-17T07:38:58.359Z,61.70
2023-03-17T07:41:59.768Z,61.78
2023-03-17T07:45:01.380Z,61.81
2023-03-17T07:48:05.045Z,62.34
2023-03-17T07:51:07.309Z,62.42
2023-03-17T07:54:15.084Z,62.08
2023-03-17T07:57:16.741Z,62.22
2023-03-17T08:00:19.506Z,61.73
2023-03-17T08:03:20.999Z,60.58
2023-03-17T08:06:25.206Z,61.12
2023-03-17T08:09:27.018Z,60.89
2023-03-17T08:12:29.020Z,61.40
2023-03-17T08:15:31.185Z,61.92
2023-03-17T08:18:32.594Z,61.92
2023-03-17T08:21:34.005Z,61.34
2023-03-17T08:24:36.192Z,61.26
2023-03-17T08:27:37.658Z,60.97
2023-03-17T08:30:39.466Z,60.54
2023-03-17T08:33:42.440Z,60.63
2023-03-17T08:36:44.101Z,61.00
2023-03-17T08:39:45.594Z,61.98
2023-03-17T08:42:49.078Z,61.18
2023-03-17T08:45:50.611Z,61.38
2023-03-17T08:48:54.946Z,61.03
2023-03-17T08:51:56.411Z,59.48
2023-03-17T08:54:58.117Z,58.29
2023-03-17T08:57:59.513Z,57.79
2023-03-17T09:01:02.810Z,56.64
2023-03-17T09:04:04.298Z,55.83
2023-03-17T09:07:08.370Z,55.52
2023-03-17T09:10:12.366Z,55.87
2023-03-17T09:13:16.208Z,53.73
2023-03-17T09:16:18.635Z,54.42
2023-03-17T09:19:20.232Z,55.20
2023-03-17T09:22:22.012Z,54.93
2023-03-17T09:25:23.668Z,53.92
2023-03-17T09:28:25.269Z,53.46
2023-03-17T09:31:27.124Z,52.87
2023-03-17T09:34:28.547Z,53.11
2023-03-17T09:37:30.211Z,52.51
2023-03-17T09:40:35.882Z,52.84
2023-03-17T09:44:05.697Z,52.20
2023-03-17T09:47:28.543Z,52.78
2023-03-17T09:50:53.924Z,53.30
2023-03-17T09:54:15.270Z,53.16
2023-03-17T09:57:24.689Z,52.81
2023-03-17T10:00:29.236Z,52.80
2023-03-17T10:03:31.284Z,53.08
2023-03-17T10:06:38.743Z,52.13
2023-03-17T10:10:14.756Z,51.33
2023-03-17T10:13:28.296Z,51.50
2023-03-17T10:16:40.490Z,51.40
2023-03-17T10:19:45.280Z,50.11
2023-03-17T10:22:50.226Z,49.72
2023-03-17T10:25:52.655Z,49.51
2023-03-17T10:28:54.809Z,49.63
2023-03-17T10:31:58.569Z,48.53
2023-03-17T10:35:01.273Z,47.26
2023-03-17T10:38:23.411Z,47.55
2023-03-17T10:41:25.915Z,47.81
2023-03-17T10:44:41.932Z,48.25
2023-03-17T10:47:45.907Z,46.91
2023-03-17T10:50:49.290Z,47.21
2023-03-17T10:53:53.061Z,46.55
2023-03-17T10:57:06.076Z,47.04
2023-03-17T11:00:19.934Z,46.83
2023-03-17T11:03:27.908Z,46.30
2023-03-17T11:06:39.137Z,45.70
2023-03-17T11:09:41.063Z,45.36
2023-03-17T11:12:43.068Z,43.69
2023-03-17T11:15:52.427Z,45.19
2023-03-17T11:18:59.605Z,45.70
2023-03-17T11:22:15.705Z,45.09
2023-03-17T11:25:23.419Z,44.01
2023-03-17T11:28:30.949Z,43.63
2023-03-17T11:31:42.394Z,44.14
2023-03-17T11:34:58.902Z,44.74
2023-03-17T11:38:15.690Z,44.39
2023-03-17T11:41:34.947Z,44.03
2023-03-17T11:45:01.215Z,43.72
2023-03-17T11:48:13.659Z,43.91
2023-03-17T11:51:27.331Z,43.26
2023-03-17T11:54:43.409Z,43.34
2023-03-17T11:57:53.316Z,43.60
2023-03-17T12:00:58.306Z,44.20
2023-03-17T12:04:18.325Z,43.92
2023-03-17T12:07:46.715Z,45.06
2023-03-17T12:10:54.522Z,45.03
2023-03-17T12:14:01.562Z,44.69
2023-03-17T12:17:12.326Z,44.34
2023-03-17T12:20:19.920Z,44.71
2023-03-17T12:23:34.315Z,45.13
2023-03-17T12:26:47.677Z,43.36
2023-03-17T12:30:06.406Z,44.44
2023-03-17T12:33:21.267Z,43.97
2023-03-17T12:36:23.061Z,43.51
2023-03-17T12:39:31.344Z,43.66
2023-03-17T12:42:46.906Z,44.06
2023-03-17T12:46:11.499Z,43.54
2023-03-17T12:49:34.243Z,43.46
2023-03-17T12:52:54.591Z,43.46
2023-03-17T12:56:08.852Z,43.65
2023-03-17T12:59:17.195Z,43.77
2023-03-17T13:02:27.840Z,44.28
2023-03-17T13:05:32.642Z,43.74
2023-03-17T13:08:37.966Z,44.12
2023-03-17T13:11:42.266Z,44.42
2023-03-17T13:14:46.269Z,44.55
2023-03-17T13:17:48.189Z,45.38
2023-03-17T13:21:11.163Z,45.28
2023-03-17T13:24:15.303Z,45.46
2023-03-17T13:27:32.329Z,45.44
2023-03-17T13:30:36.687Z,45.84
2023-03-17T13:33:51.305Z,45.70
2023-03-17T13:37:14.588Z,45.97
2023-03-17T13:40:25.180Z,45.90
2023-03-17T13:43:56.717Z,46.60
2023-03-17T13:47:20.583Z,47.30
2023-03-17T13:50:25.440Z,46.35
2023-03-17T13:53:31.599Z,46.25
2023-03-17T13:56:41.901Z,46.38
2023-03-17T14:00:16.236Z,46.46
2023-03-17T14:03:19.369Z,47.01
2023-03-17T14:06:24.290Z,47.12
2023-03-17T14:09:39.793Z,46.93
2023-03-17T14:12:57.791Z,47.26
2023-03-17T14:16:04.618Z,47.18
2023-03-17T14:19:20.970Z,47.67
2023-03-17T14:22:24.759Z,47.55
2023-03-17T14:25:32.827Z,47.67
2023-03-17T14:28:35.420Z,47.13
2023-03-17T14:31:36.975Z,47.63
2023-03-17T14:34:48.035Z,47.65
2023-03-17T14:37:49.553Z,48.19
2023-03-17T14:41:01.745Z,48.29
2023-03-17T14:44:03.291Z,47.97
2023-03-17T14:47:12.589Z,48.27
2023-03-17T14:50:20.578Z,48.64
2023-03-17T14:53:24.185Z,48.61
2023-03-17T14:56:41.195Z,48.58
2023-03-17T14:59:54.755Z,48.67
2023-03-17T15:02:58.615Z,49.04
2023-03-17T15:06:20.235Z,49.69
2023-03-17T15:09:27.349Z,49.74
2023-03-17T15:12:29.838Z,49.92
2023-03-17T15:15:37.069Z,49.95
2023-03-17T15:18:38.554Z,49.79
2023-03-17T15:21:42.279Z,48.97
2023-03-17T15:24:44.054Z,48.98
2023-03-17T15:27:46.778Z,49.18
2023-03-17T15:30:51.400Z,49.20
2023-03-17T15:33:53.163Z,49.03
2023-03-17T15:36:55.557Z,49.40
2023-03-17T15:39:58.072Z,49.16
2023-03-17T15:43:00.474Z,48.94
2023-03-17T15:46:06.764Z,49.16
2023-03-17T15:49:12.173Z,48.49
2023-03-17T15:52:21.414Z,49.25
2023-03-17T15:55:25.243Z,49.89
2023-03-17T15:58:27.003Z,50.50
2023-03-17T16:01:28.693Z,50.65
2023-03-17T16:04:30.349Z,51.31
2023-03-17T16:07:33.343Z,50.95
2023-03-17T16:10:34.865Z,51.10
2023-03-17T16:13:36.279Z,51.07
2023-03-17T16:16:43.489Z,50.98
2023-03-17T16:19:45.211Z,51.33
2023-03-17T16:22:46.798Z,50.86
2023-03-17T16:25:48.621Z,51.09
2023-03-17T16:28:50.465Z,52.05
2023-03-17T16:31:51.946Z,51.99
2023-03-17T16:34:53.340Z,52.56
2023-03-17T16:37:55.479Z,52.73
2023-03-17T16:41:16.948Z,52.57
2023-03-17T16:44:20.897Z,52.62
2023-03-17T16:47:22.302Z,53.22
2023-03-17T16:50:26.463Z,53.53
2023-03-17T16:53:27.853Z,54.53
2023-03-17T16:56:29.853Z,54.99
2023-03-17T16:59:33.504Z,55.49
2023-03-17T17:02:35.092Z,57.05
2023-03-17T17:05:36.612Z,56.44
2023-03-17T17:08:38.013Z,56.20
2023-03-17T17:11:39.454Z,56.48
2023-03-17T17:14:41.425Z,56.54
2023-03-17T17:17:46.446Z,55.56
2023-03-17T17:20:48.920Z,55.80
2023-03-17T17:23:52.766Z,56.05
2023-03-17T17:26:54.462Z,56.88
2023-03-17T17:29:55.886Z,57.32
2023-03-17T17:32:59.235Z,58.10
2023-03-17T17:36:03.750Z,57.77
2023-03-17T17:39:06.670Z,57.96
2023-03-17T17:42:10.792Z,59.11
2023-03-17T17:45:13.866Z,59.30
2023-03-17T17:48:22.302Z,59.52
2023-03-17T17:51:23.748Z,60.79
2023-03-17T17:54:25.366Z,60.57
2023-03-17T17:57:27.995Z,62.58
2023-03-17T18:00:30.355Z,62.99
2023-03-17T18:03:32.281Z,63.92
2023-03-17T18:06:33.767Z,63.18
2023-03-17T18:09:35.584Z,64.59
2023-03-17T18:12:37.970Z,65.56
2023-03-17T18:15:39.634Z,66.29
2023-03-17T18:18:43.155Z,67.88
2023-03-17T18:21:46.021Z,67.76
2023-03-17T18:24:48.361Z,69.09
2023-03-17T18:27:49.949Z,70.00
2023-03-17T18:30:51.437Z,69.65
2023-03-17T18:33:57.746Z,69.96
2023-03-17T18:37:00.593Z,70.09
2023-03-17T18:40:14.249Z,71.58
2023-03-17T18:43:16.843Z,72.88
2023-03-17T18:46:18.387Z,74.24
2023-03-17T18:49:19.924Z,74.93
2023-03-17T18:52:21.863Z,74.24
2023-03-17T18:55:23.337Z,74.60
2023-03-17T18:58:25.296Z,74.56
2023-03-17T19:01:27.120Z,74.71
2023-03-17T19:04:28.536Z,74.88
2023-03-17T19:07:29.983Z,76.46
2023-03-17T19:10:31.638Z,76.37
2023-03-17T19:13:33.771Z,76.38
2023-03-17T19:16:35.586Z,77.59
2023-03-17T19:19:37.432Z,78.73
2023-03-17T19:22:40.126Z,78.66
2023-03-17T19:25:41.715Z,78.22
2023-03-17T19:28:43.309Z,78.72
2023-03-17T19:31:45.737Z,79.29
2023-03-17T19:34:48.842Z,79.23
2023-03-17T19:37:50.778Z,79.25
2023-03-17T19:40:52.945Z,80.53
2023-03-17T19:43:54.346Z,81.52
2023-03-17T19:46:55.779Z,81.77
2023-03-17T19:49:57.603Z,81.75
2023-03-17T19:52:59.021Z,81.67
2023-03-17T19:56:00.660Z,83.51
2023-03-17T19:59:02.184Z,83.55
2023-03-17T20:02:03.729Z,82.76
2023-03-17T20:05:06.501Z,83.36
2023-03-17T20:08:07.977Z,84.41
2023-03-17T20:11:11.457Z,84.60
2023-03-17T20:14:13.158Z,85.78
2023-03-17T20:17:15.277Z,86.99
2023-03-17T20:20:16.758Z,87.94
2023-03-17T20:23:18.788Z,87.86
2023-03-17T20:26:20.250Z,88.39
2023-03-17T20:29:21.653Z,88.33
2023-03-17T20:32:23.097Z,87.46
2023-03-17T20:35:27.261Z,87.89
2023-03-17T20:38:29.246Z,89.18
2023-03-17T20:41:30.977Z,89.50
2023-03-17T20:44:32.379Z,89.92
2023-03-17T20:47:33.804Z,90.90
2023-03-17T20:50:35.241Z,90.02
2023-03-17T20:53:36.689Z,90.67
2023-03-17T20:56:39.554Z,91.50
2023-03-17T20:59:41.910Z,91.12
2023-03-17T21:02:50.537Z,91.70
2023-03-17T21:05:53.327Z,92.36
2023-03-17T21:08:55.438Z,92.89
2023-03-17T21:11:56.890Z,92.92
2023-03-17T21:14:59.209Z,93.31
2023-03-17T21:18:00.703Z,93.45
2023-03-17T21:21:02.186Z,93.02
2023-03-17T21:24:05.417Z,92.72
2023-03-17T21:27:11.197Z,94.08
2023-03-17T21:30:14.396Z,93.08
2023-03-17T21:33:15.846Z,92.94
2023-03-17T21:36:17.624Z,94.46
2023-03-17T21:39:20.004Z,94.21
2023-03-17T21:42:21.491Z,95.06
2023-03-17T21:45:22.993Z,95.37
2023-03-17T21:48:24.482Z,94.73
2023-03-17T21:51:26.212Z,96.25
2023-03-17T21:54:28.406Z,96.75
2023-03-17T21:57:29.795Z,94.21
2023-03-17T22:00:42.684Z,92.92
2023-03-17T22:03:45.996Z,91.63
2023-03-17T22:06:47.428Z,91.40
2023-03-17T22:09:52.799Z,90.35
2023-03-17T22:12:54.191Z,91.03
2023-03-17T22:15:58.672Z,91.27
2023-03-17T22:19:00.271Z,92.24
2023-03-17T22:22:02.110Z,91.79
2023-03-17T22:25:06.093Z,92.04
2023-03-17T22:28:08.539Z,91.55
2023-03-17T22:31:12.228Z,89.04
2023-03-17T22:34:13.804Z,89.49
2023-03-17T22:37:15.199Z,88.82
2023-03-17T22:40:18.980Z,88.24
2023-03-17T22:43:20.396Z,87.56
2023-03-17T22:46:22.036Z,88.76
2023-03-17T22:49:23.797Z,89.32
2023-03-17T22:52:25.194Z,89.94
2023-03-17T22:55:26.578Z,90.46
2023-03-17T22:58:28.921Z,90.44
2023-03-17T23:01:31.602Z,90.96
2023-03-17T23:04:33.607Z,90.49
2023-03-17T23:07:49.465Z,91.88
2023-03-17T23:10:51.374Z,92.85
2023-03-17T23:13:53.634Z,93.21
2023-03-17T23:16:55.255Z,94.05
2023-03-17T23:19:56.781Z,93.94
2023-03-17T23:22:58.744Z,94.32
2023-03-17T23:26:00.361Z,94.57
2023-03-17T23:29:02.818Z,94.58
2023-03-17T23:32:04.528Z,94.66
2023-03-17T23:35:07.047Z,94.46
2023-03-17T23:38:08.647Z,94.69
2023-03-17T23:41:12.580Z,95.49
2023-03-17T23:44:14.292Z,96.36
2023-03-17T23:47:16.797Z,95.40
2023-03-17T23:50:19.396Z,95.11
2023-03-17T23:53:23.291Z,96.86
2023-03-17T23:56:24.861Z,97.23
2023-03-17T23:59:26.493Z,96.77
